createdAt,value
2022-10-11T00:00:42.633Z,5.33
2022-10-11T00:03:49.454Z,6.67
2022-10-11T00:06:57.872Z,4.97
2022-10-11T00:10:04.302Z,5.47
2022-10-11T00:13:11.018Z,5.60
2022-10-11T00:16:17.568Z,5.43
2022-10-11T00:19:23.402Z,4.60
2022-10-11T00:22:32.688Z,6.17
2022-10-11T00:25:38.371Z,4.33
2022-10-11T00:28:45.925Z,5.13
2022-10-11T00:31:51.584Z,4.77
2022-10-11T00:34:59.883Z,4.77
2022-10-11T00:38:12.786Z,6.07
2022-10-11T00:41:19.675Z,3.53
2022-10-11T00:44:27.833Z,3.73
2022-10-11T00:47:34.370Z,3.37
2022-10-11T00:50:40.585Z,7.27
2022-10-11T00:53:52.386Z,3.27
2022-10-11T00:57:03.452Z,4.10
2022-10-11T01:00:13.177Z,3.30
2022-10-11T01:03:20.217Z,4.50
2022-10-11T01:06:26.790Z,2.80
2022-10-11T01:09:36.446Z,3.23
2022-10-11T01:12:55.840Z,2.27
2022-10-11T01:16:10.594Z,3.30
2022-10-11T01:19:32.185Z,2.90
2022-10-11T01:23:00.125Z,3.00
2022-10-11T01:26:46.361Z,3.30
2022-10-11T01:29:59.303Z,3.23
2022-10-11T01:33:21.662Z,3.03
2022-10-11T01:36:34.635Z,2.73
2022-10-11T01:39:46.732Z,2.60
2022-10-11T01:42:53.652Z,2.80
2022-10-11T01:46:03.901Z,2.70
2022-10-11T01:49:12.837Z,2.87
2022-10-11T01:52:19.343Z,2.60
2022-10-11T01:55:34.436Z,2.43
2022-10-11T01:58:54.670Z,3.47
2022-10-11T02:02:09.437Z,4.23
2022-10-11T02:05:25.619Z,2.40
2022-10-11T02:08:39.851Z,2.27
2022-10-11T02:11:47.255Z,2.60
2022-10-11T02:14:57.016Z,2.83
2022-10-11T02:18:09.119Z,2.40
2022-10-11T02:21:22.336Z,2.53
2022-10-11T02:24:33.494Z,3.37
2022-10-11T02:27:43.110Z,2.43
2022-10-11T02:30:53.511Z,3.10
2022-10-11T02:34:06.584Z,2.40
2022-10-11T02:37:25.776Z,9.80
2022-10-11T02:40:35.845Z,2.63
2022-10-11T02:43:46.650Z,2.80
2022-10-11T02:46:53.243Z,2.33
2022-10-11T02:50:00.543Z,2.70
2022-10-11T02:53:10.335Z,1.80
2022-10-11T02:56:16.761Z,2.23
2022-10-11T02:59:22.416Z,5.37
2022-10-11T03:02:28.890Z,4.60
2022-10-11T03:05:40.627Z,3.20
2022-10-11T03:08:49.878Z,4.57
2022-10-11T03:11:55.504Z,2.97
2022-10-11T03:15:03.263Z,2.73
2022-10-11T03:18:09.023Z,2.93
2022-10-11T03:21:15.461Z,2.63
2022-10-11T03:24:23.918Z,2.63
2022-10-11T03:27:30.327Z,3.30
2022-10-11T03:30:35.950Z,4.20
2022-10-11T03:33:42.661Z,3.97
2022-10-11T03:36:48.239Z,3.53
2022-10-11T03:39:57.522Z,2.67
2022-10-11T03:43:03.515Z,2.83
2022-10-11T03:46:10.166Z,2.43
2022-10-11T03:49:15.738Z,2.77
2022-10-11T03:52:22.158Z,4.17
2022-10-11T03:55:30.488Z,2.60
2022-10-11T03:58:37.195Z,4.33
2022-10-11T04:01:42.985Z,2.77
2022-10-11T04:04:49.457Z,3.30
2022-10-11T04:07:55.319Z,2.40
2022-10-11T04:11:06.282Z,2.67
2022-10-11T04:14:11.865Z,2.83
2022-10-11T04:17:18.305Z,2.70
2022-10-11T04:20:23.968Z,4.60
2022-10-11T04:23:30.745Z,2.77
2022-10-11T04:26:39.097Z,2.53
2022-10-11T04:29:45.828Z,3.83
2022-10-11T04:32:51.539Z,2.90
2022-10-11T04:35:59.115Z,2.63
2022-10-11T04:39:05.977Z,2.37
2022-10-11T04:42:16.550Z,2.73
2022-10-11T04:45:22.657Z,3.47
2022-10-11T04:48:29.163Z,3.30
2022-10-11T04:51:36.694Z,3.30
2022-10-11T04:54:43.157Z,3.87
2022-10-11T04:57:51.500Z,3.27
2022-10-11T05:00:58.113Z,3.13
2022-10-11T05:04:04.074Z,5.83
2022-10-11T05:07:11.031Z,4.30
2022-10-11T05:10:16.676Z,3.43
2022-10-11T05:13:26.296Z,3.13
2022-10-11T05:16:31.953Z,3.33
2022-10-11T05:19:38.487Z,4.87
2022-10-11T05:22:44.097Z,4.53
2022-10-11T05:25:51.029Z,3.43
2022-10-11T05:28:59.674Z,4.17
2022-10-11T05:32:07.900Z,4.40
2022-10-11T05:35:13.606Z,3.77
2022-10-11T05:38:20.235Z,3.57
2022-10-11T05:41:25.845Z,4.33
2022-10-11T05:44:35.123Z,3.30
2022-10-11T05:47:40.680Z,3.80
2022-10-11T05:50:47.175Z,4.43
2022-10-11T05:53:52.882Z,6.37
2022-10-11T05:56:59.321Z,5.10
2022-10-11T06:00:11.870Z,4.97
2022-10-11T06:03:21.159Z,5.80
2022-10-11T06:06:27.877Z,4.17
2022-10-11T06:09:35.011Z,4.93
2022-10-11T06:12:41.061Z,5.33
2022-10-11T06:15:50.285Z,5.80
2022-10-11T06:18:57.059Z,4.77
2022-10-11T06:22:03.618Z,5.20
2022-10-11T06:25:10.646Z,6.43
2022-10-11T06:28:17.396Z,5.67
2022-10-11T06:31:25.953Z,5.70
2022-10-11T06:34:32.381Z,4.50
2022-10-11T06:37:38.523Z,5.23
2022-10-11T06:40:45.346Z,5.23
2022-10-11T06:43:54.727Z,5.53
2022-10-11T06:47:04.095Z,6.27
2022-10-11T06:50:10.257Z,5.47
2022-10-11T06:53:16.875Z,6.43
2022-10-11T06:56:22.667Z,4.47
2022-10-11T06:59:29.129Z,6.50
2022-10-11T07:02:37.488Z,7.53
2022-10-11T07:05:44.079Z,4.40
2022-10-11T07:08:50.159Z,5.03
2022-10-11T07:11:56.624Z,7.27
2022-10-11T07:15:03.509Z,5.53
2022-10-11T07:18:12.863Z,4.90
2022-10-11T07:21:19.393Z,5.67
2022-10-11T07:24:25.820Z,6.53
2022-10-11T07:27:31.443Z,6.63
2022-10-11T07:30:42.321Z,5.37
2022-10-11T07:33:50.753Z,4.77
2022-10-11T07:36:57.421Z,5.43
2022-10-11T07:40:03.802Z,7.60
2022-10-11T07:43:10.749Z,6.57
2022-10-11T07:46:16.650Z,5.93
2022-10-11T07:49:25.969Z,5.93
2022-10-11T07:52:31.555Z,6.17
2022-10-11T07:55:40.351Z,6.67
2022-10-11T07:58:46.317Z,5.47
2022-10-11T08:01:52.853Z,6.87
2022-10-11T08:05:03.024Z,6.00
2022-10-11T08:08:09.577Z,6.17
2022-10-11T08:11:23.770Z,7.87
2022-10-11T08:14:30.320Z,8.13
2022-10-11T08:27:50.043Z,6.17
2022-10-11T08:30:57.379Z,7.90
2022-10-11T08:34:04.293Z,7.17
2022-10-11T08:37:13.221Z,8.53
2022-10-11T08:40:21.281Z,7.57
2022-10-11T08:43:36.023Z,8.90
2022-10-11T08:46:45.308Z,6.93
2022-10-11T08:49:51.619Z,7.67
2022-10-11T08:53:06.596Z,8.10
2022-10-11T08:56:16.555Z,8.73
2022-10-11T08:59:32.669Z,7.90
2022-10-11T09:03:06.909Z,6.60
2022-10-11T09:06:23.493Z,7.53
2022-10-11T09:10:00.091Z,8.50
2022-10-11T09:13:31.221Z,6.63
2022-10-11T09:16:48.426Z,6.13
2022-10-11T09:20:30.331Z,8.50
2022-10-11T09:23:52.793Z,6.90
2022-10-11T09:27:15.066Z,6.67
2022-10-11T09:30:23.181Z,6.70
2022-10-11T09:33:36.262Z,9.27
2022-10-11T09:36:49.995Z,7.37
2022-10-11T09:40:00.480Z,5.90
2022-10-11T09:43:12.689Z,5.20
2022-10-11T09:46:27.437Z,6.87
2022-10-11T09:49:38.866Z,8.23
2022-10-11T09:52:53.520Z,8.93
2022-10-11T09:56:08.506Z,7.27
2022-10-11T09:59:34.608Z,10.80
2022-10-11T10:02:47.148Z,6.20
2022-10-11T10:06:08.668Z,5.50
2022-10-11T10:09:27.878Z,5.93
2022-10-11T10:12:34.340Z,4.83
2022-10-11T10:15:50.086Z,5.73
2022-10-11T10:18:59.209Z,6.50
2022-10-11T10:22:07.650Z,7.00
2022-10-11T10:25:25.405Z,6.53
2022-10-11T10:28:31.160Z,5.93
2022-10-11T10:32:09.230Z,6.13
2022-10-11T10:35:16.433Z,7.23
2022-10-11T10:38:28.403Z,8.10
2022-10-11T10:41:34.323Z,6.50
2022-10-11T10:44:40.797Z,6.27
2022-10-11T10:48:10.922Z,6.57
2022-10-11T10:51:27.116Z,7.87
2022-10-11T10:54:45.444Z,6.20
2022-10-11T11:01:44.793Z,6.60
2022-10-11T11:05:03.331Z,5.17
2022-10-11T11:08:18.202Z,5.93
2022-10-11T11:11:39.367Z,4.27
2022-10-11T11:14:58.226Z,3.47
2022-10-11T11:18:16.626Z,4.67
2022-10-11T11:21:44.573Z,3.37
2022-10-11T11:25:03.648Z,3.40
2022-10-11T11:28:22.053Z,3.57
2022-10-11T11:31:48.948Z,2.53
2022-10-11T11:35:01.312Z,3.73
2022-10-11T11:38:20.026Z,3.77
2022-10-11T11:41:30.917Z,3.37
2022-10-11T11:44:42.122Z,3.13
2022-10-11T11:47:55.276Z,2.60
2022-10-11T11:51:11.879Z,4.07
2022-10-11T11:54:35.044Z,4.30
2022-10-11T11:58:06.022Z,3.47
2022-10-11T12:01:30.266Z,3.13
2022-10-11T12:04:41.048Z,4.10
2022-10-11T12:07:53.522Z,2.73
2022-10-11T12:11:33.033Z,3.03
2022-10-11T12:14:43.537Z,2.83
2022-10-11T12:18:17.686Z,4.07
2022-10-11T12:21:30.412Z,2.60
2022-10-11T12:24:58.234Z,3.63
2022-10-11T12:28:49.153Z,4.80
2022-10-11T12:32:29.645Z,3.47
2022-10-11T12:35:53.251Z,2.77
2022-10-11T12:39:33.500Z,2.67
2022-10-11T12:42:39.895Z,3.27
2022-10-11T12:45:51.519Z,4.17
2022-10-11T12:48:59.920Z,3.23
2022-10-11T12:52:25.014Z,1.97
2022-10-11T12:55:44.976Z,2.17
2022-10-11T12:58:52.203Z,2.23
2022-10-11T13:02:03.976Z,2.10
2022-10-11T13:05:18.296Z,2.93
2022-10-11T13:08:30.906Z,2.00
2022-10-11T13:11:41.683Z,1.80
2022-10-11T13:14:50.298Z,2.57
2022-10-11T13:18:06.284Z,2.87
2022-10-11T13:21:23.060Z,3.27
2022-10-11T13:24:37.895Z,2.20
2022-10-11T13:27:43.948Z,2.80
2022-10-11T13:30:55.183Z,1.83
2022-10-11T13:34:03.832Z,1.70
2022-10-11T13:37:16.026Z,1.67
2022-10-11T13:40:24.225Z,3.00
2022-10-11T13:43:32.774Z,2.67
2022-10-11T13:46:41.912Z,2.73
2022-10-11T13:50:03.916Z,1.90
2022-10-11T13:53:25.972Z,2.73
2022-10-11T13:56:35.793Z,2.70
2022-10-11T13:59:46.624Z,1.87
2022-10-11T14:02:56.383Z,2.30
2022-10-11T14:06:06.695Z,4.73
2022-10-11T14:09:24.519Z,2.13
2022-10-11T14:12:33.809Z,2.37
2022-10-11T14:15:41.238Z,3.03
2022-10-11T14:18:51.849Z,2.57
2022-10-11T14:22:01.248Z,2.43
2022-10-11T14:25:08.571Z,2.87
2022-10-11T14:28:16.536Z,1.97
2022-10-11T14:31:22.256Z,1.83
2022-10-11T14:34:30.473Z,2.60
2022-10-11T14:37:38.895Z,1.90
2022-10-11T14:40:45.460Z,2.30
2022-10-11T14:43:51.067Z,2.20
2022-10-11T14:46:57.510Z,2.37
2022-10-11T14:50:04.929Z,1.60
2022-10-11T14:53:15.371Z,2.20
2022-10-11T14:56:21.819Z,2.57
2022-10-11T14:59:30.309Z,2.93
2022-10-11T15:02:36.776Z,2.00
2022-10-11T15:05:43.301Z,2.20
2022-10-11T15:08:52.250Z,2.43
2022-10-11T15:11:58.990Z,2.80
2022-10-11T15:15:06.204Z,2.10
2022-10-11T15:18:17.671Z,2.70
2022-10-11T15:21:24.614Z,3.77
2022-10-11T15:24:33.981Z,2.27
2022-10-11T15:27:40.054Z,7.07
2022-10-11T15:30:46.814Z,2.60
2022-10-11T15:33:53.062Z,3.90
2022-10-11T15:36:59.458Z,1.80
2022-10-11T15:40:19.503Z,2.80
2022-10-11T15:43:27.600Z,2.00
2022-10-11T15:46:33.162Z,3.30
2022-10-11T15:49:39.609Z,3.70
2022-10-11T15:52:45.179Z,4.50
2022-10-11T15:55:56.176Z,5.73
2022-10-11T15:59:03.051Z,4.67
2022-10-11T16:02:09.820Z,4.33
2022-10-11T16:05:15.460Z,4.47
2022-10-11T16:08:22.658Z,3.47
2022-10-11T16:11:31.201Z,5.17
2022-10-11T16:14:41.705Z,3.87
2022-10-11T16:17:50.513Z,2.57
2022-10-11T16:20:56.917Z,4.50
2022-10-11T16:24:03.880Z,2.90
2022-10-11T16:27:17.969Z,7.63
2022-10-11T16:30:24.683Z,4.27
2022-10-11T16:33:31.987Z,5.97
2022-10-11T16:36:41.104Z,7.87
2022-10-11T16:39:47.801Z,3.47
2022-10-11T16:42:56.289Z,4.47
2022-10-11T16:46:03.559Z,4.20
2022-10-11T16:49:10.749Z,4.13
2022-10-11T16:52:17.330Z,5.20
2022-10-11T16:55:22.952Z,4.13
2022-10-11T16:58:32.402Z,4.53
2022-10-11T17:01:38.094Z,7.30
2022-10-11T17:04:44.518Z,7.50
2022-10-11T17:07:50.304Z,5.43
2022-10-11T17:10:57.771Z,7.13
2022-10-11T17:14:07.871Z,8.33
2022-10-11T17:17:15.361Z,6.50
2022-10-11T17:20:21.126Z,6.60
2022-10-11T17:23:27.494Z,7.50
2022-10-11T17:26:33.060Z,7.10
2022-10-11T17:29:42.910Z,7.90
2022-10-11T17:32:48.484Z,7.03
2022-10-11T17:35:55.000Z,7.13
2022-10-11T17:39:00.789Z,8.70
2022-10-11T17:42:09.203Z,10.63
2022-10-11T17:45:18.976Z,9.63
2022-10-11T17:48:25.682Z,7.43
2022-10-11T17:51:31.533Z,7.40
2022-10-11T17:54:39.207Z,7.30
2022-10-11T17:57:45.655Z,9.00
2022-10-11T18:00:55.223Z,8.27
2022-10-11T18:04:03.601Z,8.17
2022-10-11T18:07:10.613Z,7.57
2022-10-11T18:10:16.531Z,5.97
2022-10-11T18:13:22.958Z,8.70
2022-10-11T18:16:32.938Z,5.87
2022-10-11T18:19:39.736Z,6.70
2022-10-11T18:22:45.578Z,5.13
2022-10-11T18:25:52.126Z,6.70
2022-10-11T18:28:58.443Z,7.53
2022-10-11T18:32:10.196Z,5.70
2022-10-11T18:35:16.155Z,6.43
2022-10-11T18:38:22.569Z,3.80
2022-10-11T18:41:32.057Z,6.70
2022-10-11T18:44:38.584Z,3.03
2022-10-11T18:47:46.942Z,3.57
2022-10-11T18:50:53.389Z,5.33
2022-10-11T18:53:59.551Z,6.60
2022-10-11T18:57:07.104Z,6.90
2022-10-11T19:00:38.967Z,4.63
2022-10-11T19:03:43.460Z,3.40
2022-10-11T19:06:52.706Z,3.97
2022-10-11T19:10:00.627Z,4.20
2022-10-11T19:13:08.526Z,5.17
2022-10-11T19:16:17.793Z,2.93
2022-10-11T19:19:28.182Z,1.90
2022-10-11T19:22:34.549Z,3.13
2022-10-11T19:25:40.162Z,3.43
2022-10-11T19:28:47.229Z,3.90
2022-10-11T19:31:55.442Z,8.67
2022-10-11T19:35:06.283Z,2.67
2022-10-11T19:38:12.300Z,3.13
2022-10-11T19:41:20.808Z,9.40
2022-10-11T19:44:26.372Z,9.10
2022-10-11T19:47:34.258Z,9.77
2022-10-11T19:50:42.829Z,11.13
2022-10-11T19:53:50.015Z,10.57
2022-10-11T19:56:56.209Z,13.13
2022-10-11T20:00:03.269Z,13.70
2022-10-11T20:03:10.272Z,14.60
2022-10-11T20:06:21.656Z,20.03
2022-10-11T20:09:30.263Z,20.93
2022-10-11T20:12:37.230Z,18.90
2022-10-11T20:15:42.861Z,21.70
2022-10-11T20:18:49.986Z,18.57
2022-10-11T20:21:59.073Z,18.90
2022-10-11T20:25:07.177Z,19.87
2022-10-11T20:28:12.740Z,19.03
2022-10-11T20:31:21.255Z,20.20
2022-10-11T20:34:27.773Z,15.93
2022-10-11T20:37:38.567Z,19.40
2022-10-11T20:40:44.250Z,19.13
2022-10-11T20:43:52.729Z,20.00
2022-10-11T20:47:01.643Z,16.37
2022-10-11T20:50:11.267Z,16.17
2022-10-11T20:53:19.623Z,21.27
2022-10-11T20:56:26.899Z,20.33
2022-10-11T20:59:32.606Z,17.03
2022-10-11T21:02:39.093Z,19.97
2022-10-11T21:05:45.080Z,15.80
2022-10-11T21:08:54.488Z,19.87
2022-10-11T21:12:00.055Z,18.00
2022-10-11T21:15:11.338Z,16.23
2022-10-11T21:18:17.186Z,18.07
2022-10-11T21:21:24.373Z,13.60
2022-10-11T21:24:32.718Z,15.13
2022-10-11T21:27:39.258Z,12.47
2022-10-11T21:30:44.797Z,14.57
2022-10-11T21:33:51.239Z,13.47
2022-10-11T21:36:57.054Z,14.27
2022-10-11T21:40:07.058Z,10.30
2022-10-11T21:43:12.663Z,11.90
2022-10-11T21:46:21.127Z,12.70
2022-10-11T21:49:26.924Z,11.47
2022-10-11T21:52:34.131Z,11.23
2022-10-11T21:55:42.630Z,10.93
2022-10-11T21:58:50.408Z,15.03
2022-10-11T22:02:00.731Z,13.73
2022-10-11T22:05:09.158Z,30.47
2022-10-11T22:08:14.903Z,49.67
2022-10-11T22:11:24.284Z,44.70
2022-10-11T22:14:30.549Z,38.80
2022-10-11T22:17:36.934Z,37.03
2022-10-11T22:20:42.485Z,39.97
2022-10-11T22:23:50.871Z,36.67
2022-10-11T22:26:59.242Z,34.53
2022-10-11T22:30:07.162Z,34.60
2022-10-11T22:33:12.701Z,33.73
2022-10-11T22:36:19.721Z,32.20
2022-10-11T22:39:25.285Z,24.13
2022-10-11T22:42:34.882Z,23.90
2022-10-11T22:45:40.424Z,20.70
2022-10-11T22:48:46.937Z,23.70
2022-10-11T22:51:52.514Z,21.67
2022-10-11T22:55:00.248Z,22.60
2022-10-11T22:58:10.243Z,22.93
2022-10-11T23:01:18.770Z,24.13
2022-10-11T23:04:25.096Z,22.50
2022-10-11T23:07:31.774Z,21.37
2022-10-11T23:10:37.612Z,20.03
2022-10-11T23:13:46.851Z,21.53
2022-10-11T23:16:53.848Z,24.23
2022-10-11T23:20:00.716Z,20.77
2022-10-11T23:23:07.719Z,18.93
2022-10-11T23:26:16.535Z,19.50
2022-10-11T23:29:24.895Z,21.47
2022-10-11T23:32:31.301Z,25.63
2022-10-11T23:35:37.682Z,25.53
2022-10-11T23:38:44.057Z,22.87
2022-10-11T23:41:49.668Z,22.90
2022-10-11T23:44:58.843Z,24.17
2022-10-11T23:48:06.492Z,20.00
2022-10-11T23:51:13.459Z,26.80
2022-10-11T23:54:19.011Z,24.23
2022-10-11T23:57:25.384Z,25.23
